sensor_id;sensor_type;location;lat;lon;timestamp;temperature;humidity
50606;DHT22;36557;53.572;10.170;2022-08-06T00:01:48;12.70;99.90
50606;DHT22;36557;53.572;10.170;2022-08-06T00:04:14;12.70;99.90
50606;DHT22;36557;53.572;10.170;2022-08-06T00:06:40;12.60;99.90
50606;DHT22;36557;53.572;10.170;2022-08-06T00:09:06;12.60;99.90
50606;DHT22;36557;53.572;10.170;2022-08-06T00:11:31;12.60;99.90
50606;DHT22;36557;53.572;10.170;2022-08-06T00:13:57;12.50;99.90
50606;DHT22;36557;53.572;10.170;2022-08-06T00:16:23;12.50;99.90
50606;DHT22;36557;53.572;10.170;2022-08-06T00:18:49;12.50;99.90
50606;DHT22;36557;53.572;10.170;2022-08-06T00:21:14;12.50;99.90
50606;DHT22;36557;53.572;10.170;2022-08-06T00:23:40;12.50;99.90
50606;DHT22;36557;53.572;10.170;2022-08-06T00:26:06;12.50;99.90
50606;DHT22;36557;53.572;10.170;2022-08-06T00:28:32;12.50;99.90
50606;DHT22;36557;53.572;10.170;2022-08-06T00:31:03;12.50;99.90
50606;DHT22;36557;53.572;10.170;2022-08-06T00:33:30;12.50;99.90
50606;DHT22;36557;53.572;10.170;2022-08-06T00:35:56;12.50;99.90
50606;DHT22;36557;53.572;10.170;2022-08-06T00:38:22;12.50;99.90
50606;DHT22;36557;53.572;10.170;2022-08-06T00:40:48;12.50;99.90
50606;DHT22;36557;53.572;10.170;2022-08-06T00:43:15;12.50;99.90
50606;DHT22;36557;53.572;10.170;2022-08-06T00:45:41;12.50;99.90
50606;DHT22;36557;53.572;10.170;2022-08-06T00:48:07;12.40;99.90
50606;DHT22;36557;53.572;10.170;2022-08-06T00:50:33;12.40;99.90
50606;DHT22;36557;53.572;10.170;2022-08-06T00:53:00;12.40;99.90
50606;DHT22;36557;53.572;10.170;2022-08-06T00:55:26;12.30;99.90
50606;DHT22;36557;53.572;10.170;2022-08-06T00:57:52;12.30;99.90
50606;DHT22;36557;53.572;10.170;2022-08-06T01:00:17;12.30;99.90
50606;DHT22;36557;53.572;10.170;2022-08-06T01:02:43;12.30;99.90
50606;DHT22;36557;53.572;10.170;2022-08-06T01:05:09;12.30;99.90
50606;DHT22;36557;53.572;10.170;2022-08-06T01:07:35;12.30;99.90
50606;DHT22;36557;53.572;10.170;2022-08-06T01:10:01;12.20;99.90
50606;DHT22;36557;53.572;10.170;2022-08-06T01:12:27;12.20;99.90
50606;DHT22;36557;53.572;10.170;2022-08-06T01:14:53;12.20;99.90
50606;DHT22;36557;53.572;10.170;2022-08-06T01:17:23;12.20;99.90
50606;DHT22;36557;53.572;10.170;2022-08-06T01:28:33;12.10;99.90
50606;DHT22;36557;53.572;10.170;2022-08-06T01:31:06;12.10;99.90
50606;DHT22;36557;53.572;10.170;2022-08-06T01:33:43;12.00;99.90
50606;DHT22;36557;53.572;10.170;2022-08-06T01:36:13;12.00;99.90
50606;DHT22;36557;53.572;10.170;2022-08-06T01:38:52;12.00;99.90
50606;DHT22;36557;53.572;10.170;2022-08-06T01:41:22;12.00;99.90
50606;DHT22;36557;53.572;10.170;2022-08-06T01:44:07;11.90;99.90
50606;DHT22;36557;53.572;10.170;2022-08-06T01:46:36;11.90;99.90
50606;DHT22;36557;53.572;10.170;2022-08-06T01:49:04;11.90;99.90
50606;DHT22;36557;53.572;10.170;2022-08-06T01:51:33;11.90;99.90
50606;DHT22;36557;53.572;10.170;2022-08-06T01:54:03;11.80;99.90
50606;DHT22;36557;53.572;10.170;2022-08-06T01:56:30;11.80;99.90
50606;DHT22;36557;53.572;10.170;2022-08-06T01:58:58;11.70;99.90
50606;DHT22;36557;53.572;10.170;2022-08-06T02:01:26;11.70;99.90
50606;DHT22;36557;53.572;10.170;2022-08-06T02:03:56;11.70;99.90
50606;DHT22;36557;53.572;10.170;2022-08-06T02:06:27;11.70;99.90
50606;DHT22;36557;53.572;10.170;2022-08-06T02:08:54;11.60;99.90
50606;DHT22;36557;53.572;10.170;2022-08-06T02:11:20;11.60;99.90
50606;DHT22;36557;53.572;10.170;2022-08-06T02:13:46;11.60;99.90
50606;DHT22;36557;53.572;10.170;2022-08-06T02:16:14;11.60;99.90
50606;DHT22;36557;53.572;10.170;2022-08-06T02:18:43;11.50;99.90
50606;DHT22;36557;53.572;10.170;2022-08-06T02:21:16;11.50;99.90
50606;DHT22;36557;53.572;10.170;2022-08-06T02:23:44;11.50;99.90
50606;DHT22;36557;53.572;10.170;2022-08-06T02:26:11;11.40;99.90
50606;DHT22;36557;53.572;10.170;2022-08-06T02:28:39;11.40;99.90
50606;DHT22;36557;53.572;10.170;2022-08-06T02:31:07;11.40;99.90
50606;DHT22;36557;53.572;10.170;2022-08-06T02:33:33;11.40;99.90
50606;DHT22;36557;53.572;10.170;2022-08-06T02:39:55;11.30;99.90
50606;DHT22;36557;53.572;10.170;2022-08-06T02:42:09;11.30;99.90
50606;DHT22;36557;53.572;10.170;2022-08-06T02:44:48;11.30;99.90
50606;DHT22;36557;53.572;10.170;2022-08-06T02:47:22;11.30;99.90
50606;DHT22;36557;53.572;10.170;2022-08-06T02:49:51;11.20;99.90
50606;DHT22;36557;53.572;10.170;2022-08-06T02:52:26;11.20;99.90
50606;DHT22;36557;53.572;10.170;2022-08-06T02:54:58;11.20;99.90
50606;DHT22;36557;53.572;10.170;2022-08-06T02:57:30;11.20;99.90
50606;DHT22;36557;53.572;10.170;2022-08-06T03:00:03;11.10;99.90
50606;DHT22;36557;53.572;10.170;2022-08-06T03:02:30;11.10;99.90
50606;DHT22;36557;53.572;10.170;2022-08-06T03:04:57;11.10;99.90
50606;DHT22;36557;53.572;10.170;2022-08-06T03:07:27;11.10;99.90
50606;DHT22;36557;53.572;10.170;2022-08-06T03:09:55;11.00;99.90
50606;DHT22;36557;53.572;10.170;2022-08-06T03:12:21;11.00;99.90
50606;DHT22;36557;53.572;10.170;2022-08-06T03:14:48;11.00;99.90
50606;DHT22;36557;53.572;10.170;2022-08-06T03:17:16;10.90;99.90
50606;DHT22;36557;53.572;10.170;2022-08-06T03:19:44;10.90;99.90
50606;DHT22;36557;53.572;10.170;2022-08-06T03:22:11;10.90;99.90
50606;DHT22;36557;53.572;10.170;2022-08-06T03:24:39;10.80;99.90
50606;DHT22;36557;53.572;10.170;2022-08-06T03:27:06;10.80;99.90
50606;DHT22;36557;53.572;10.170;2022-08-06T03:29:34;10.80;99.90
50606;DHT22;36557;53.572;10.170;2022-08-06T03:32:01;10.80;99.90
50606;DHT22;36557;53.572;10.170;2022-08-06T03:34:28;10.70;99.90
50606;DHT22;36557;53.572;10.170;2022-08-06T03:36:56;10.70;99.90
50606;DHT22;36557;53.572;10.170;2022-08-06T03:39:23;10.70;99.90
50606;DHT22;36557;53.572;10.170;2022-08-06T03:41:50;10.60;99.90
50606;DHT22;36557;53.572;10.170;2022-08-06T03:44:16;10.70;99.90
50606;DHT22;36557;53.572;10.170;2022-08-06T03:47:27;10.60;99.90
50606;DHT22;36557;53.572;10.170;2022-08-06T03:50:15;10.60;99.90
50606;DHT22;36557;53.572;10.170;2022-08-06T03:52:45;10.60;99.90
50606;DHT22;36557;53.572;10.170;2022-08-06T03:55:16;10.60;99.90
50606;DHT22;36557;53.572;10.170;2022-08-06T03:57:46;10.60;99.90
50606;DHT22;36557;53.572;10.170;2022-08-06T04:00:15;10.60;99.90
50606;DHT22;36557;53.572;10.170;2022-08-06T04:02:49;10.60;99.90
50606;DHT22;36557;53.572;10.170;2022-08-06T04:05:23;10.60;99.90
50606;DHT22;36557;53.572;10.170;2022-08-06T04:07:55;10.60;99.90
50606;DHT22;36557;53.572;10.170;2022-08-06T04:10:24;10.60;99.90
50606;DHT22;36557;53.572;10.170;2022-08-06T04:12:51;10.60;99.90
50606;DHT22;36557;53.572;10.170;2022-08-06T04:15:17;10.60;99.90
50606;DHT22;36557;53.572;10.170;2022-08-06T04:17:45;10.60;99.90
50606;DHT22;36557;53.572;10.170;2022-08-06T04:20:14;10.60;99.90
50606;DHT22;36557;53.572;10.170;2022-08-06T04:22:42;10.70;99.90
50606;DHT22;36557;53.572;10.170;2022-08-06T04:25:08;10.60;99.90
50606;DHT22;36557;53.572;10.170;2022-08-06T04:27:36;10.70;99.90
50606;DHT22;36557;53.572;10.170;2022-08-06T04:30:05;10.70;99.90
50606;DHT22;36557;53.572;10.170;2022-08-06T04:32:32;10.80;99.90
50606;DHT22;36557;53.572;10.170;2022-08-06T04:35:04;10.80;99.90
50606;DHT22;36557;53.572;10.170;2022-08-06T04:37:31;10.80;99.90
50606;DHT22;36557;53.572;10.170;2022-08-06T04:39:58;10.80;99.90
50606;DHT22;36557;53.572;10.170;2022-08-06T04:42:24;10.90;99.90
50606;DHT22;36557;53.572;10.170;2022-08-06T04:44:51;11.00;99.90
50606;DHT22;36557;53.572;10.170;2022-08-06T04:47:17;11.20;99.90
50606;DHT22;36557;53.572;10.170;2022-08-06T04:49:43;11.50;99.90
50606;DHT22;36557;53.572;10.170;2022-08-06T04:52:26;11.90;99.90
50606;DHT22;36557;53.572;10.170;2022-08-06T04:54:52;12.20;99.90
50606;DHT22;36557;53.572;10.170;2022-08-06T04:57:18;12.60;99.90
50606;DHT22;36557;53.572;10.170;2022-08-06T04:59:44;12.90;99.90
50606;DHT22;36557;53.572;10.170;2022-08-06T05:02:10;13.20;99.90
50606;DHT22;36557;53.572;10.170;2022-08-06T05:04:37;13.50;99.90
50606;DHT22;36557;53.572;10.170;2022-08-06T05:07:18;13.70;99.90
50606;DHT22;36557;53.572;10.170;2022-08-06T05:09:45;14.00;99.90
50606;DHT22;36557;53.572;10.170;2022-08-06T05:15:16;14.50;99.90
50606;DHT22;36557;53.572;10.170;2022-08-06T05:18:04;14.70;99.90
50606;DHT22;36557;53.572;10.170;2022-08-06T05:20:35;14.80;99.90
50606;DHT22;36557;53.572;10.170;2022-08-06T05:23:14;14.90;99.90
50606;DHT22;36557;53.572;10.170;2022-08-06T05:25:41;15.00;99.90
50606;DHT22;36557;53.572;10.170;2022-08-06T05:28:07;15.10;99.90
50606;DHT22;36557;53.572;10.170;2022-08-06T05:30:33;15.20;99.90
50606;DHT22;36557;53.572;10.170;2022-08-06T05:32:59;15.30;99.90
50606;DHT22;36557;53.572;10.170;2022-08-06T05:35:25;15.30;99.90
50606;DHT22;36557;53.572;10.170;2022-08-06T05:37:51;15.40;99.90
50606;DHT22;36557;53.572;10.170;2022-08-06T05:40:17;15.40;99.90
50606;DHT22;36557;53.572;10.170;2022-08-06T05:42:43;15.50;99.90
50606;DHT22;36557;53.572;10.170;2022-08-06T05:45:10;15.40;99.90
50606;DHT22;36557;53.572;10.170;2022-08-06T05:47:39;15.60;99.90
50606;DHT22;36557;53.572;10.170;2022-08-06T05:50:11;15.60;99.90
50606;DHT22;36557;53.572;10.170;2022-08-06T05:52:50;15.80;99.90
50606;DHT22;36557;53.572;10.170;2022-08-06T05:55:26;16.00;99.90
50606;DHT22;36557;53.572;10.170;2022-08-06T05:58:09;16.30;99.90
50606;DHT22;36557;53.572;10.170;2022-08-06T06:00:37;16.50;99.90
50606;DHT22;36557;53.572;10.170;2022-08-06T06:03:06;16.90;99.90
50606;DHT22;36557;53.572;10.170;2022-08-06T06:05:34;17.00;99.90
50606;DHT22;36557;53.572;10.170;2022-08-06T06:08:00;17.50;99.90
50606;DHT22;36557;53.572;10.170;2022-08-06T06:10:27;17.30;99.90
50606;DHT22;36557;53.572;10.170;2022-08-06T06:12:54;17.20;99.90
50606;DHT22;36557;53.572;10.170;2022-08-06T06:15:21;17.30;99.90
50606;DHT22;36557;53.572;10.170;2022-08-06T06:23:09;17.00;99.90
50606;DHT22;36557;53.572;10.170;2022-08-06T06:26:24;16.80;99.90
50606;DHT22;36557;53.572;10.170;2022-08-06T06:33:24;17.10;99.90
50606;DHT22;36557;53.572;10.170;2022-08-06T06:35:53;17.30;99.90
50606;DHT22;36557;53.572;10.170;2022-08-06T06:38:49;17.30;99.90
50606;DHT22;36557;53.572;10.170;2022-08-06T06:44:09;17.80;99.90
50606;DHT22;36557;53.572;10.170;2022-08-06T06:46:49;18.00;99.90
50606;DHT22;36557;53.572;10.170;2022-08-06T06:49:34;17.80;99.90
50606;DHT22;36557;53.572;10.170;2022-08-06T06:52:09;17.90;99.90
50606;DHT22;36557;53.572;10.170;2022-08-06T06:54:43;17.50;99.90
50606;DHT22;36557;53.572;10.170;2022-08-06T06:57:11;17.90;99.90
50606;DHT22;36557;53.572;10.170;2022-08-06T06:59:45;18.30;99.90
50606;DHT22;36557;53.572;10.170;2022-08-06T07:02:19;17.90;99.90
50606;DHT22;36557;53.572;10.170;2022-08-06T07:04:47;17.90;99.90
50606;DHT22;36557;53.572;10.170;2022-08-06T07:07:13;18.00;99.90
50606;DHT22;36557;53.572;10.170;2022-08-06T07:09:40;18.20;99.90
50606;DHT22;36557;53.572;10.170;2022-08-06T07:12:07;18.40;99.90
50606;DHT22;36557;53.572;10.170;2022-08-06T07:14:35;17.60;99.90
50606;DHT22;36557;53.572;10.170;2022-08-06T07:17:04;17.50;99.90
50606;DHT22;36557;53.572;10.170;2022-08-06T07:19:30;18.00;99.90
50606;DHT22;36557;53.572;10.170;2022-08-06T07:21:58;17.70;99.90
50606;DHT22;36557;53.572;10.170;2022-08-06T07:24:25;17.80;99.90
50606;DHT22;36557;53.572;10.170;2022-08-06T07:26:53;17.80;99.90
50606;DHT22;36557;53.572;10.170;2022-08-06T07:29:20;17.80;99.90
50606;DHT22;36557;53.572;10.170;2022-08-06T07:31:47;17.50;99.90
50606;DHT22;36557;53.572;10.170;2022-08-06T07:34:15;17.90;99.90
50606;DHT22;36557;53.572;10.170;2022-08-06T07:36:50;18.00;99.90
50606;DHT22;36557;53.572;10.170;2022-08-06T07:39:27;17.80;99.90
50606;DHT22;36557;53.572;10.170;2022-08-06T07:41:53;18.50;99.90
50606;DHT22;36557;53.572;10.170;2022-08-06T07:44:22;19.10;99.90
50606;DHT22;36557;53.572;10.170;2022-08-06T07:46:50;18.60;99.90
50606;DHT22;36557;53.572;10.170;2022-08-06T07:49:21;18.70;99.90
50606;DHT22;36557;53.572;10.170;2022-08-06T07:51:48;18.40;99.90
50606;DHT22;36557;53.572;10.170;2022-08-06T07:54:17;18.50;99.90
50606;DHT22;36557;53.572;10.170;2022-08-06T07:56:44;18.50;99.90
50606;DHT22;36557;53.572;10.170;2022-08-06T07:59:10;18.50;99.90
50606;DHT22;36557;53.572;10.170;2022-08-06T08:01:38;18.60;99.90
50606;DHT22;36557;53.572;10.170;2022-08-06T08:04:08;18.70;99.90
50606;DHT22;36557;53.572;10.170;2022-08-06T08:06:54;18.80;99.90
50606;DHT22;36557;53.572;10.170;2022-08-06T08:09:22;18.60;99.90
50606;DHT22;36557;53.572;10.170;2022-08-06T08:11:49;18.80;99.90
50606;DHT22;36557;53.572;10.170;2022-08-06T08:14:18;18.70;99.90
50606;DHT22;36557;53.572;10.170;2022-08-06T08:16:45;18.20;99.90
50606;DHT22;36557;53.572;10.170;2022-08-06T08:21:51;18.40;99.90
50606;DHT22;36557;53.572;10.170;2022-08-06T08:24:17;18.70;99.90
50606;DHT22;36557;53.572;10.170;2022-08-06T08:26:43;19.40;99.90
50606;DHT22;36557;53.572;10.170;2022-08-06T08:29:11;20.30;99.90
50606;DHT22;36557;53.572;10.170;2022-08-06T08:31:37;21.10;99.90
50606;DHT22;36557;53.572;10.170;2022-08-06T08:34:02;21.40;99.90
50606;DHT22;36557;53.572;10.170;2022-08-06T08:36:28;21.90;99.90
50606;DHT22;36557;53.572;10.170;2022-08-06T08:38:54;21.70;99.90
50606;DHT22;36557;53.572;10.170;2022-08-06T08:41:25;21.50;99.90
50606;DHT22;36557;53.572;10.170;2022-08-06T08:44:06;20.70;99.30
50606;DHT22;36557;53.572;10.170;2022-08-06T08:46:38;20.90;99.90
50606;DHT22;36557;53.572;10.170;2022-08-06T08:49:05;22.10;99.90
50606;DHT22;36557;53.572;10.170;2022-08-06T08:51:33;20.70;98.20
50606;DHT22;36557;53.572;10.170;2022-08-06T08:54:02;19.50;98.80
50606;DHT22;36557;53.572;10.170;2022-08-06T08:56:32;19.30;99.90
50606;DHT22;36557;53.572;10.170;2022-08-06T08:58:58;21.20;98.70
50606;DHT22;36557;53.572;10.170;2022-08-06T09:01:25;21.20;98.60
50606;DHT22;36557;53.572;10.170;2022-08-06T09:03:51;20.40;97.00
50606;DHT22;36557;53.572;10.170;2022-08-06T09:06:17;20.80;99.90
50606;DHT22;36557;53.572;10.170;2022-08-06T09:08:44;20.40;96.30
50606;DHT22;36557;53.572;10.170;2022-08-06T09:11:12;21.00;99.30
50606;DHT22;36557;53.572;10.170;2022-08-06T09:13:38;19.70;97.80
50606;DHT22;36557;53.572;10.170;2022-08-06T09:16:04;19.60;98.10
50606;DHT22;36557;53.572;10.170;2022-08-06T09:18:29;19.90;97.70
50606;DHT22;36557;53.572;10.170;2022-08-06T09:20:55;20.10;98.40
50606;DHT22;36557;53.572;10.170;2022-08-06T09:23:21;20.30;99.00
50606;DHT22;36557;53.572;10.170;2022-08-06T09:25:51;21.00;98.50
50606;DHT22;36557;53.572;10.170;2022-08-06T09:28:38;21.90;96.90
50606;DHT22;36557;53.572;10.170;2022-08-06T09:31:07;21.90;95.80
50606;DHT22;36557;53.572;10.170;2022-08-06T09:33:35;20.90;98.30
50606;DHT22;36557;53.572;10.170;2022-08-06T09:36:07;21.20;97.10
50606;DHT22;36557;53.572;10.170;2022-08-06T09:41:11;22.70;97.20
50606;DHT22;36557;53.572;10.170;2022-08-06T09:43:38;22.70;95.80
50606;DHT22;36557;53.572;10.170;2022-08-06T09:46:05;22.90;94.00
50606;DHT22;36557;53.572;10.170;2022-08-06T09:48:32;23.20;95.00
50606;DHT22;36557;53.572;10.170;2022-08-06T09:50:58;24.10;95.60
50606;DHT22;36557;53.572;10.170;2022-08-06T09:53:24;23.50;93.20
50606;DHT22;36557;53.572;10.170;2022-08-06T09:55:53;23.20;93.70
50606;DHT22;36557;53.572;10.170;2022-08-06T09:58:29;22.80;93.70
50606;DHT22;36557;53.572;10.170;2022-08-06T10:00:55;22.70;95.20
50606;DHT22;36557;53.572;10.170;2022-08-06T10:03:21;22.70;94.70
50606;DHT22;36557;53.572;10.170;2022-08-06T10:06:02;22.80;94.70
50606;DHT22;36557;53.572;10.170;2022-08-06T10:08:27;23.00;94.90
50606;DHT22;36557;53.572;10.170;2022-08-06T10:10:53;22.80;94.00
50606;DHT22;36557;53.572;10.170;2022-08-06T10:13:21;22.20;95.00
50606;DHT22;36557;53.572;10.170;2022-08-06T10:15:50;21.80;94.50
50606;DHT22;36557;53.572;10.170;2022-08-06T10:18:41;21.50;95.30
50606;DHT22;36557;53.572;10.170;2022-08-06T10:21:10;21.90;94.60
50606;DHT22;36557;53.572;10.170;2022-08-06T10:23:37;22.20;95.80
50606;DHT22;36557;53.572;10.170;2022-08-06T10:26:07;22.70;95.10
50606;DHT22;36557;53.572;10.170;2022-08-06T10:28:35;23.00;94.10
50606;DHT22;36557;53.572;10.170;2022-08-06T10:31:06;22.50;93.20
50606;DHT22;36557;53.572;10.170;2022-08-06T10:33:40;22.40;93.40
50606;DHT22;36557;53.572;10.170;2022-08-06T10:36:11;21.40;93.60
50606;DHT22;36557;53.572;10.170;2022-08-06T10:38:41;21.60;95.20
50606;DHT22;36557;53.572;10.170;2022-08-06T10:41:09;22.20;95.40
50606;DHT22;36557;53.572;10.170;2022-08-06T10:43:38;23.10;93.80
50606;DHT22;36557;53.572;10.170;2022-08-06T10:46:08;23.40;93.40
50606;DHT22;36557;53.572;10.170;2022-08-06T10:48:38;24.50;92.20
50606;DHT22;36557;53.572;10.170;2022-08-06T10:51:06;24.10;91.30
50606;DHT22;36557;53.572;10.170;2022-08-06T10:53:37;22.70;92.50
50606;DHT22;36557;53.572;10.170;2022-08-06T10:56:05;21.30;93.30
50606;DHT22;36557;53.572;10.170;2022-08-06T10:58:33;20.40;94.90
50606;DHT22;36557;53.572;10.170;2022-08-06T11:01:02;20.20;97.30
50606;DHT22;36557;53.572;10.170;2022-08-06T11:03:57;20.00;96.60
50606;DHT22;36557;53.572;10.170;2022-08-06T11:14:44;19.60;99.20
50606;DHT22;36557;53.572;10.170;2022-08-06T11:17:10;19.80;97.90
50606;DHT22;36557;53.572;10.170;2022-08-06T11:22:06;19.60;97.60
50606;DHT22;36557;53.572;10.170;2022-08-06T11:24:33;19.50;97.30
50606;DHT22;36557;53.572;10.170;2022-08-06T11:26:59;20.00;97.70
50606;DHT22;36557;53.572;10.170;2022-08-06T11:29:24;21.00;95.70
50606;DHT22;36557;53.572;10.170;2022-08-06T11:31:50;21.60;95.30
50606;DHT22;36557;53.572;10.170;2022-08-06T11:34:20;21.40;94.00
50606;DHT22;36557;53.572;10.170;2022-08-06T11:36:49;20.70;93.30
50606;DHT22;36557;53.572;10.170;2022-08-06T11:39:18;20.50;93.40
50606;DHT22;36557;53.572;10.170;2022-08-06T11:41:50;20.70;93.50
50606;DHT22;36557;53.572;10.170;2022-08-06T11:44:18;21.90;95.10
50606;DHT22;36557;53.572;10.170;2022-08-06T11:46:46;22.30;90.30
50606;DHT22;36557;53.572;10.170;2022-08-06T11:49:21;21.20;91.10
50606;DHT22;36557;53.572;10.170;2022-08-06T11:51:49;21.60;91.70
50606;DHT22;36557;53.572;10.170;2022-08-06T11:54:29;21.30;90.00
50606;DHT22;36557;53.572;10.170;2022-08-06T11:59:28;21.90;88.40
50606;DHT22;36557;53.572;10.170;2022-08-06T12:01:54;22.70;92.70
50606;DHT22;36557;53.572;10.170;2022-08-06T12:07:27;23.80;88.60
50606;DHT22;36557;53.572;10.170;2022-08-06T12:15:45;23.30;86.60
50606;DHT22;36557;53.572;10.170;2022-08-06T12:20:30;21.80;86.20
50606;DHT22;36557;53.572;10.170;2022-08-06T12:22:58;23.70;86.40
50606;DHT22;36557;53.572;10.170;2022-08-06T12:25:35;23.50;77.60
50606;DHT22;36557;53.572;10.170;2022-08-06T12:28:03;23.30;78.20
50606;DHT22;36557;53.572;10.170;2022-08-06T12:30:52;22.90;76.90
50606;DHT22;36557;53.572;10.170;2022-08-06T12:33:20;22.40;78.60
50606;DHT22;36557;53.572;10.170;2022-08-06T12:35:52;21.70;77.10
50606;DHT22;36557;53.572;10.170;2022-08-06T12:38:19;22.20;79.70
50606;DHT22;36557;53.572;10.170;2022-08-06T12:40:57;23.30;85.30
50606;DHT22;36557;53.572;10.170;2022-08-06T12:43:28;22.30;76.60
50606;DHT22;36557;53.572;10.170;2022-08-06T12:45:57;22.40;81.90
50606;DHT22;36557;53.572;10.170;2022-08-06T12:48:23;22.50;75.50
50606;DHT22;36557;53.572;10.170;2022-08-06T12:51:05;23.50;74.30
50606;DHT22;36557;53.572;10.170;2022-08-06T12:53:51;23.60;73.60
50606;DHT22;36557;53.572;10.170;2022-08-06T12:56:18;24.00;72.60
50606;DHT22;36557;53.572;10.170;2022-08-06T12:58:45;24.70;70.90
50606;DHT22;36557;53.572;10.170;2022-08-06T13:01:20;25.50;70.60
50606;DHT22;36557;53.572;10.170;2022-08-06T13:03:48;24.90;71.60
50606;DHT22;36557;53.572;10.170;2022-08-06T13:06:16;23.50;65.70
50606;DHT22;36557;53.572;10.170;2022-08-06T13:08:48;23.40;66.10
50606;DHT22;36557;53.572;10.170;2022-08-06T13:11:15;23.40;66.60
50606;DHT22;36557;53.572;10.170;2022-08-06T13:13:47;23.60;67.50
50606;DHT22;36557;53.572;10.170;2022-08-06T13:16:14;24.80;70.90
50606;DHT22;36557;53.572;10.170;2022-08-06T13:18:42;24.70;71.90
50606;DHT22;36557;53.572;10.170;2022-08-06T13:21:16;24.40;68.90
50606;DHT22;36557;53.572;10.170;2022-08-06T13:23:46;24.10;60.00
50606;DHT22;36557;53.572;10.170;2022-08-06T13:26:16;23.10;61.60
50606;DHT22;36557;53.572;10.170;2022-08-06T13:29:15;22.70;67.10
50606;DHT22;36557;53.572;10.170;2022-08-06T13:31:42;22.20;67.70
50606;DHT22;36557;53.572;10.170;2022-08-06T13:34:13;22.80;71.00
50606;DHT22;36557;53.572;10.170;2022-08-06T13:36:42;22.60;70.90
50606;DHT22;36557;53.572;10.170;2022-08-06T13:39:24;22.50;67.50
50606;DHT22;36557;53.572;10.170;2022-08-06T13:42:10;23.00;70.20
50606;DHT22;36557;53.572;10.170;2022-08-06T13:44:44;24.30;68.70
50606;DHT22;36557;53.572;10.170;2022-08-06T13:47:13;22.60;65.50
50606;DHT22;36557;53.572;10.170;2022-08-06T13:49:43;22.50;67.60
50606;DHT22;36557;53.572;10.170;2022-08-06T13:52:09;22.40;68.30
50606;DHT22;36557;53.572;10.170;2022-08-06T13:54:35;22.70;68.30
50606;DHT22;36557;53.572;10.170;2022-08-06T13:57:02;23.50;73.40
50606;DHT22;36557;53.572;10.170;2022-08-06T13:59:29;23.10;67.80
50606;DHT22;36557;53.572;10.170;2022-08-06T14:01:59;23.80;68.30
50606;DHT22;36557;53.572;10.170;2022-08-06T14:04:26;24.80;69.90
50606;DHT22;36557;53.572;10.170;2022-08-06T14:06:54;22.80;65.10
50606;DHT22;36557;53.572;10.170;2022-08-06T14:09:23;23.30;72.10
50606;DHT22;36557;53.572;10.170;2022-08-06T14:11:53;22.70;70.20
50606;DHT22;36557;53.572;10.170;2022-08-06T14:14:20;22.60;68.10
50606;DHT22;36557;53.572;10.170;2022-08-06T14:16:46;22.40;68.70
50606;DHT22;36557;53.572;10.170;2022-08-06T14:19:12;23.00;74.70
50606;DHT22;36557;53.572;10.170;2022-08-06T14:21:38;23.90;72.30
50606;DHT22;36557;53.572;10.170;2022-08-06T14:24:03;23.20;71.40
50606;DHT22;36557;53.572;10.170;2022-08-06T14:26:29;24.50;74.90
50606;DHT22;36557;53.572;10.170;2022-08-06T14:28:55;25.10;72.30
50606;DHT22;36557;53.572;10.170;2022-08-06T14:31:21;26.00;70.80
50606;DHT22;36557;53.572;10.170;2022-08-06T14:33:47;25.90;71.20
50606;DHT22;36557;53.572;10.170;2022-08-06T14:38:39;24.20;65.90
50606;DHT22;36557;53.572;10.170;2022-08-06T14:41:06;24.20;71.70
50606;DHT22;36557;53.572;10.170;2022-08-06T14:43:50;23.10;71.10
50606;DHT22;36557;53.572;10.170;2022-08-06T14:46:34;23.70;69.70
50606;DHT22;36557;53.572;10.170;2022-08-06T14:49:01;23.30;72.40
50606;DHT22;36557;53.572;10.170;2022-08-06T14:51:28;22.50;72.90
50606;DHT22;36557;53.572;10.170;2022-08-06T14:53:53;22.30;74.10
50606;DHT22;36557;53.572;10.170;2022-08-06T14:56:19;22.50;78.30
50606;DHT22;36557;53.572;10.170;2022-08-06T14:58:45;22.00;77.90
50606;DHT22;36557;53.572;10.170;2022-08-06T15:01:10;21.50;79.50
50606;DHT22;36557;53.572;10.170;2022-08-06T15:03:36;21.50;81.00
50606;DHT22;36557;53.572;10.170;2022-08-06T15:06:02;21.20;83.80
50606;DHT22;36557;53.572;10.170;2022-08-06T15:08:28;21.20;84.00
50606;DHT22;36557;53.572;10.170;2022-08-06T15:10:53;21.40;82.20
50606;DHT22;36557;53.572;10.170;2022-08-06T15:13:19;21.10;82.50
50606;DHT22;36557;53.572;10.170;2022-08-06T15:15:45;21.20;84.00
50606;DHT22;36557;53.572;10.170;2022-08-06T15:18:11;21.20;86.40
50606;DHT22;36557;53.572;10.170;2022-08-06T15:20:36;21.00;85.80
50606;DHT22;36557;53.572;10.170;2022-08-06T15:23:02;20.80;85.60
50606;DHT22;36557;53.572;10.170;2022-08-06T15:25:29;21.50;87.50
50606;DHT22;36557;53.572;10.170;2022-08-06T15:27:55;21.30;83.40
50606;DHT22;36557;53.572;10.170;2022-08-06T15:30:20;21.80;83.80
50606;DHT22;36557;53.572;10.170;2022-08-06T15:32:46;21.50;83.00
50606;DHT22;36557;53.572;10.170;2022-08-06T15:35:15;21.80;82.80
50606;DHT22;36557;53.572;10.170;2022-08-06T15:37:41;22.50;81.70
50606;DHT22;36557;53.572;10.170;2022-08-06T15:40:07;22.00;81.70
50606;DHT22;36557;53.572;10.170;2022-08-06T15:42:33;21.60;79.90
50606;DHT22;36557;53.572;10.170;2022-08-06T15:44:59;21.60;84.90
50606;DHT22;36557;53.572;10.170;2022-08-06T15:47:24;21.10;81.70
50606;DHT22;36557;53.572;10.170;2022-08-06T15:49:50;21.10;82.20
50606;DHT22;36557;53.572;10.170;2022-08-06T15:52:16;20.90;85.50
50606;DHT22;36557;53.572;10.170;2022-08-06T15:54:41;20.60;83.70
50606;DHT22;36557;53.572;10.170;2022-08-06T15:57:07;20.80;84.40
50606;DHT22;36557;53.572;10.170;2022-08-06T15:59:33;20.60;84.50
50606;DHT22;36557;53.572;10.170;2022-08-06T16:01:58;21.60;84.30
50606;DHT22;36557;53.572;10.170;2022-08-06T16:04:25;20.60;82.70
50606;DHT22;36557;53.572;10.170;2022-08-06T16:06:50;20.20;83.40
50606;DHT22;36557;53.572;10.170;2022-08-06T16:09:18;20.40;86.10
50606;DHT22;36557;53.572;10.170;2022-08-06T16:11:44;20.50;85.70
50606;DHT22;36557;53.572;10.170;2022-08-06T16:14:10;20.30;84.70
50606;DHT22;36557;53.572;10.170;2022-08-06T16:16:35;20.30;87.00
50606;DHT22;36557;53.572;10.170;2022-08-06T16:19:01;20.60;88.00
50606;DHT22;36557;53.572;10.170;2022-08-06T16:21:27;20.50;88.90
50606;DHT22;36557;53.572;10.170;2022-08-06T16:23:53;20.10;85.00
50606;DHT22;36557;53.572;10.170;2022-08-06T16:26:19;20.10;85.20
50606;DHT22;36557;53.572;10.170;2022-08-06T16:28:46;20.00;89.00